Aeroporto :
LOGIN :

Iscrizione | Disclaimer

   EN    FR    IT 

 










Sommario :    VFR   VFR Marginale   IFR   IFR Intensivo   IFR Molto Intensivo
Visibilità : 
Base nubi : 
>= 8 km
>= 3000ft
5 / 8 km
1000 / 3000 ft
1500m / 5 km
500 / 1000 ft
800 / 1500m
200 / 500 ft
< 800m
< 200 ft
Simboli :   Temporali  Nebbia  Neve Forte  Precipitazioni Forti  Vento > 20 kt
SIGMETs :   Varie  Temporali  Ghiacco  Turbolenza  Onda orograficha  Ceneri Vulcaniche







- Altitudine del aeroporto : 101 ft
- Codice IATA : GLO
- Carte del aeroporto


EGBJ - Gloucestershire

ULTIMO METAR :
  • 260820Z 18011KT 150V210 9999 FEW010 12/07 Q1007

METARs OBSOLETI :
  • 260750Z 18009KT 160V220 9999 FEW010 11/08 Q1007
  • 260720Z 16008KT 9999 FEW008 10/08 Q1007
  • 260650Z 16007KT 9999 FEW010 09/07 Q1007

TAF TAF EGBJ
Valido dal 26 a 09 ore il 26 a 18 ore UTC


260759Z 2609/2618 16009KT 9999 FEW010
BECMG 2609/2611 22014KT
PROB40
TEMPO 2609/2618 7000 SHRA BKN012
Nessun NOTAM noto per questo aeroporto.



MetMap, La meteo Aeronautica in un colpo d'occhio ! - Copyright ORBIFLY Dicembre 2007 - Disclaimer

ORBIFLY MET'MAP TEAM :

Programmazione e sviluppo : Alexandra Zaïnal
Concezione e sviluppo : Baudouin d'Aumeries
Co-Programmazione e sviluppo : Marc-Olivier Méhu
Supporto tecnico e logistico : Manuel Goepfert
Aiuto per la traduzione : Arnaldo La Scala

Contatto : metmap@orbifly.com




FONTI E CREDITI :

   NOAA